createdAt,value
2022-12-31T00:01:35.312Z,96816.78
2022-12-31T00:06:37.147Z,96823.97
2022-12-31T00:11:39.095Z,96826.91
2022-12-31T00:16:42.973Z,96823.69
2022-12-31T00:21:45.039Z,96829.50
2022-12-31T00:26:47.079Z,96832.38
2022-12-31T00:31:50.388Z,96817.50
2022-12-31T00:36:52.784Z,96851.97
2022-12-31T00:41:54.749Z,96853.22
2022-12-31T00:46:58.080Z,96868.38
2022-12-31T00:52:00.123Z,96833.63
2022-12-31T00:57:02.073Z,96839.31
2022-12-31T01:02:05.563Z,96870.66
2022-12-31T01:07:07.655Z,96863.94
2022-12-31T01:12:09.644Z,96850.00
2022-12-31T01:17:13.628Z,96856.59
2022-12-31T01:22:15.774Z,96883.53
2022-12-31T01:27:17.806Z,96883.19
2022-12-31T01:32:21.106Z,96880.72
2022-12-31T01:37:22.964Z,96866.66
2022-12-31T01:42:24.924Z,96870.03
2022-12-31T01:47:38.199Z,96886.31
2022-12-31T01:52:42.367Z,96906.38
2022-12-31T01:57:46.923Z,96909.09
2022-12-31T02:02:50.945Z,96899.75
2022-12-31T02:07:54.096Z,96894.53
2022-12-31T02:12:56.194Z,96920.59
2022-12-31T02:18:11.814Z,96908.19
2022-12-31T02:23:39.889Z,96918.44
2022-12-31T02:29:05.652Z,96909.56
2022-12-31T02:34:13.834Z,96925.34
2022-12-31T02:39:16.575Z,96911.22
2022-12-31T02:44:26.329Z,96896.72
2022-12-31T02:49:40.786Z,96894.38
2022-12-31T02:54:51.248Z,96896.69
2022-12-31T03:00:16.174Z,96893.03
2022-12-31T03:05:23.856Z,96896.41
2022-12-31T03:10:25.966Z,96898.38
2022-12-31T03:15:29.756Z,96891.50
2022-12-31T03:20:53.690Z,96910.47
2022-12-31T03:25:57.020Z,96913.84
2022-12-31T03:31:00.090Z,96923.78
2022-12-31T03:36:05.454Z,96945.66
2022-12-31T03:41:10.490Z,96931.88
2022-12-31T03:46:12.445Z,96926.69
2022-12-31T03:51:16.703Z,96944.28
2022-12-31T03:56:18.653Z,96963.28
2022-12-31T04:01:24.229Z,96970.91
2022-12-31T04:06:27.597Z,96973.81
2022-12-31T04:11:29.385Z,96991.84
2022-12-31T04:16:32.228Z,96984.66
2022-12-31T04:21:35.767Z,96973.66
2022-12-31T04:26:38.331Z,96988.94
2022-12-31T04:31:40.391Z,96979.91
2022-12-31T04:36:43.727Z,96983.91
2022-12-31T04:41:45.545Z,96980.84
2022-12-31T04:46:47.781Z,97001.47
2022-12-31T04:51:51.096Z,96987.72
2022-12-31T04:56:53.087Z,97004.38
2022-12-31T05:01:55.273Z,97011.28
2022-12-31T05:06:58.897Z,97013.59
2022-12-31T05:12:00.852Z,97012.97
2022-12-31T05:17:02.858Z,97020.78
2022-12-31T05:22:24.944Z,97020.63
2022-12-31T05:27:30.994Z,97012.09
2022-12-31T05:32:33.637Z,97029.34
2022-12-31T05:37:37.030Z,97025.66
2022-12-31T05:42:39.117Z,97026.75
2022-12-31T05:47:41.230Z,97014.81
2022-12-31T05:52:47.596Z,97009.41
2022-12-31T05:57:49.814Z,97009.88
2022-12-31T06:02:51.880Z,97017.16
2022-12-31T06:07:55.613Z,97024.00
2022-12-31T06:12:57.592Z,97003.63
2022-12-31T06:17:59.590Z,97029.38
2022-12-31T06:23:03.358Z,97030.44
2022-12-31T06:28:06.025Z,97020.25
2022-12-31T06:33:08.144Z,97037.66
2022-12-31T06:38:11.467Z,97030.34
2022-12-31T06:43:13.459Z,97037.38
2022-12-31T06:48:15.579Z,97038.63
2022-12-31T06:53:18.900Z,97042.59
2022-12-31T06:58:20.953Z,97034.16
2022-12-31T07:03:34.059Z,97018.00
2022-12-31T07:08:49.955Z,97061.88
2022-12-31T07:14:09.771Z,97053.63
2022-12-31T07:19:23.786Z,97063.16
2022-12-31T07:24:28.371Z,97081.69
2022-12-31T07:29:38.667Z,97086.13
2022-12-31T07:34:50.853Z,97072.41
2022-12-31T07:40:03.456Z,97106.94
2022-12-31T07:45:16.126Z,97070.63
2022-12-31T07:50:19.583Z,97070.34
2022-12-31T07:55:22.996Z,97079.53
2022-12-31T08:00:25.995Z,97065.16
2022-12-31T08:05:33.880Z,97051.38
2022-12-31T08:10:42.314Z,97060.25
2022-12-31T08:15:44.642Z,97032.47
2022-12-31T08:20:57.946Z,97083.81
2022-12-31T08:26:16.238Z,97099.84
2022-12-31T08:31:21.162Z,97095.91
2022-12-31T08:36:31.866Z,97091.66
2022-12-31T08:41:43.079Z,97087.66
2022-12-31T08:46:55.133Z,97071.78
2022-12-31T08:51:57.987Z,97084.56
2022-12-31T08:57:16.808Z,97079.50
2022-12-31T09:02:35.569Z,97121.78
2022-12-31T09:07:45.510Z,97125.56
2022-12-31T09:12:54.013Z,97135.56
2022-12-31T09:17:56.606Z,97091.59
2022-12-31T09:23:01.074Z,97120.84
2022-12-31T09:28:17.688Z,97133.34
2022-12-31T09:33:31.323Z,97146.44
2022-12-31T09:38:40.594Z,97143.88
2022-12-31T09:44:17.841Z,97128.13
2022-12-31T09:49:52.773Z,97136.44
2022-12-31T09:55:13.381Z,97138.38
2022-12-31T10:00:22.041Z,97124.72
2022-12-31T10:05:38.939Z,97122.69
2022-12-31T10:10:50.029Z,97108.00
2022-12-31T10:16:09.849Z,97117.66
2022-12-31T10:21:28.404Z,97119.78
2022-12-31T10:26:49.813Z,97129.09
2022-12-31T10:32:11.023Z,97127.63
2022-12-31T10:37:16.825Z,97108.63
2022-12-31T10:42:56.200Z,97105.03
2022-12-31T10:48:29.623Z,97105.44
2022-12-31T10:53:55.802Z,97115.72
2022-12-31T10:59:36.381Z,97134.06
2022-12-31T11:05:04.487Z,97108.84
2022-12-31T11:10:25.057Z,97123.38
2022-12-31T11:15:50.244Z,97116.22
2022-12-31T11:21:08.895Z,97111.94
2022-12-31T11:26:22.817Z,97105.66
2022-12-31T11:31:36.667Z,97103.66
2022-12-31T11:36:47.375Z,97093.63
2022-12-31T11:41:52.383Z,97105.19
2022-12-31T11:47:06.539Z,97098.38
2022-12-31T11:52:32.529Z,97105.16
2022-12-31T11:57:36.492Z,97120.53
2022-12-31T12:02:43.145Z,97120.09
2022-12-31T12:07:46.660Z,97121.69
2022-12-31T12:12:48.893Z,97114.44
2022-12-31T12:17:53.952Z,97116.56
2022-12-31T12:22:59.446Z,97137.09
2022-12-31T12:28:11.501Z,97137.00
2022-12-31T12:33:18.307Z,97121.91
2022-12-31T12:38:23.145Z,97114.84
2022-12-31T12:43:27.300Z,97124.88
2022-12-31T12:48:36.782Z,97099.38
2022-12-31T12:53:50.445Z,97096.47
2022-12-31T12:59:08.745Z,97111.13
2022-12-31T13:04:40.849Z,97103.19
2022-12-31T13:10:03.457Z,97094.69
2022-12-31T13:15:16.615Z,97095.81
2022-12-31T13:20:26.683Z,97084.47
2022-12-31T13:25:38.358Z,97091.25
2022-12-31T13:30:43.026Z,97084.00
2022-12-31T13:35:51.467Z,97093.44
2022-12-31T13:41:01.348Z,97088.94
2022-12-31T13:46:10.646Z,97094.75
2022-12-31T13:51:18.801Z,97115.28
2022-12-31T13:56:25.885Z,97120.72
2022-12-31T14:01:34.273Z,97103.09
2022-12-31T14:06:41.497Z,97109.41
2022-12-31T14:11:58.401Z,97100.50
2022-12-31T14:17:08.616Z,97105.75
2022-12-31T14:22:19.648Z,97093.34
2022-12-31T14:27:28.794Z,97094.19
2022-12-31T14:32:38.943Z,97122.94
2022-12-31T14:37:48.453Z,97139.34
2022-12-31T14:43:02.397Z,97155.78
2022-12-31T14:48:17.124Z,97124.91
2022-12-31T14:53:23.822Z,97150.81
2022-12-31T14:58:33.198Z,97125.28
2022-12-31T15:03:44.700Z,97122.59
2022-12-31T15:08:56.005Z,97132.72
2022-12-31T15:14:36.828Z,97113.09
2022-12-31T15:20:16.867Z,97123.63
2022-12-31T15:25:24.156Z,97134.69
2022-12-31T15:30:39.845Z,97107.06
2022-12-31T15:35:48.569Z,97113.78
2022-12-31T15:40:52.460Z,97120.47
2022-12-31T15:45:57.650Z,97117.72
2022-12-31T15:51:01.453Z,97114.41
2022-12-31T15:56:04.871Z,97098.59
2022-12-31T16:01:14.948Z,97129.25
2022-12-31T16:06:17.575Z,97152.28
2022-12-31T16:11:19.653Z,97159.16
2022-12-31T16:16:24.772Z,97145.13
2022-12-31T16:21:32.534Z,97151.66
2022-12-31T16:26:43.765Z,97145.56
2022-12-31T16:31:48.979Z,97150.19
2022-12-31T16:37:02.101Z,97155.22
2022-12-31T16:42:16.627Z,97161.53
2022-12-31T16:47:23.810Z,97163.81
2022-12-31T16:52:30.707Z,97193.34
2022-12-31T16:57:32.752Z,97193.13
2022-12-31T17:02:39.255Z,97191.78
2022-12-31T17:07:42.571Z,97194.91
2022-12-31T17:13:25.421Z,97190.63
2022-12-31T17:18:17.348Z,97228.56
2022-12-31T17:23:25.232Z,97212.00
2022-12-31T17:28:32.564Z,97218.66
2022-12-31T17:33:35.901Z,97217.56
2022-12-31T17:38:37.935Z,97204.16
2022-12-31T17:43:41.008Z,97213.72
2022-12-31T17:48:49.363Z,97211.88
2022-12-31T17:53:51.507Z,97218.13
2022-12-31T17:58:54.231Z,97240.75
2022-12-31T18:03:57.560Z,97223.75
2022-12-31T18:08:59.630Z,97226.13
2022-12-31T18:14:01.894Z,97232.03
2022-12-31T18:19:23.531Z,97230.19
2022-12-31T18:24:35.157Z,97238.53
2022-12-31T18:29:37.128Z,97226.47
2022-12-31T18:34:40.511Z,97218.22
2022-12-31T18:39:42.524Z,97225.22
2022-12-31T18:44:44.900Z,97218.47
2022-12-31T18:49:48.666Z,97232.78
2022-12-31T18:54:50.747Z,97241.72
2022-12-31T18:59:52.716Z,97238.06
2022-12-31T19:04:56.043Z,97241.88
2022-12-31T19:09:58.590Z,97243.28
2022-12-31T19:15:00.791Z,97254.59
2022-12-31T19:20:05.017Z,97256.50
2022-12-31T19:25:17.165Z,97256.03
2022-12-31T19:30:23.199Z,97270.19
2022-12-31T19:35:27.458Z,97239.53
2022-12-31T19:40:31.328Z,97256.53
2022-12-31T19:45:33.412Z,97242.00
2022-12-31T19:50:36.853Z,97243.06
2022-12-31T19:55:39.075Z,97256.69
2022-12-31T20:00:49.657Z,97251.16
2022-12-31T20:06:06.259Z,97256.69
2022-12-31T20:11:11.229Z,97245.78
2022-12-31T20:16:15.494Z,97249.78
2022-12-31T20:21:21.081Z,97247.22
2022-12-31T20:26:24.757Z,97237.06
2022-12-31T20:31:27.128Z,97219.06
2022-12-31T20:36:30.683Z,97227.41
2022-12-31T20:41:33.010Z,97252.75
2022-12-31T20:46:35.405Z,97228.97
2022-12-31T20:51:38.765Z,97244.59
2022-12-31T20:56:41.666Z,97258.69
2022-12-31T21:02:19.434Z,97254.97
2022-12-31T21:07:07.203Z,97266.22
2022-12-31T21:12:28.948Z,97255.38
2022-12-31T21:17:30.900Z,97250.34
2022-12-31T21:22:34.304Z,97252.56
2022-12-31T21:27:36.459Z,97243.50
2022-12-31T21:32:38.469Z,97246.53
2022-12-31T21:37:58.953Z,97243.00
2022-12-31T21:43:02.511Z,97229.94
2022-12-31T21:48:20.352Z,97241.72
2022-12-31T21:53:30.547Z,97237.94
2022-12-31T21:58:37.157Z,97255.63
2022-12-31T22:03:39.496Z,97236.34
2022-12-31T22:08:44.558Z,97235.13
2022-12-31T22:13:47.444Z,97238.97
2022-12-31T22:18:49.867Z,97244.25
2022-12-31T22:23:55.345Z,97252.56
2022-12-31T22:28:59.320Z,97253.16
2022-12-31T22:34:01.990Z,97242.72
2022-12-31T22:39:05.377Z,97250.38
2022-12-31T22:44:08.321Z,97246.44
2022-12-31T22:49:10.510Z,97229.38
2022-12-31T22:54:14.701Z,97217.47
2022-12-31T22:59:17.337Z,97222.66
2022-12-31T23:04:19.303Z,97231.50
2022-12-31T23:09:41.248Z,97197.97
2022-12-31T23:15:01.905Z,97215.66
2022-12-31T23:20:24.271Z,97214.19
2022-12-31T23:25:27.594Z,97222.38
2022-12-31T23:30:29.560Z,97226.81
2022-12-31T23:35:31.555Z,97234.00
2022-12-31T23:40:34.911Z,97220.59
2022-12-31T23:45:37.016Z,97224.38
2022-12-31T23:50:40.104Z,97226.88
2022-12-31T23:55:43.435Z,97228.03
